sensor_id;sensor_type;location;lat;lon;timestamp;P1;P2;P0
83597;PMS5003;73565;45.774;15.892;2023-11-21T00:01:45;122;118;75
83597;PMS5003;73565;45.774;15.892;2023-11-21T00:03:45;119;113;77
83597;PMS5003;73565;45.774;15.892;2023-11-21T00:05:45;119;116;73
83597;PMS5003;73565;45.774;15.892;2023-11-21T00:07:45;125;123;78
83597;PMS5003;73565;45.774;15.892;2023-11-21T00:09:45;128;120;76
83597;PMS5003;73565;45.774;15.892;2023-11-21T00:13:49;127;122;77
83597;PMS5003;73565;45.774;15.892;2023-11-21T00:15:55;124;116;76
83597;PMS5003;73565;45.774;15.892;2023-11-21T00:17:49;109;106;68
83597;PMS5003;73565;45.774;15.892;2023-11-21T00:19:49;121;115;76
83597;PMS5003;73565;45.774;15.892;2023-11-21T00:21:49;113;111;75
83597;PMS5003;73565;45.774;15.892;2023-11-21T00:23:49;111;107;66
83597;PMS5003;73565;45.774;15.892;2023-11-21T00:25:49;124;119;77
83597;PMS5003;73565;45.774;15.892;2023-11-21T00:27:49;119;114;75
83597;PMS5003;73565;45.774;15.892;2023-11-21T00:29:49;110;107;70
83597;PMS5003;73565;45.774;15.892;2023-11-21T00:31:49;120;119;75
83597;PMS5003;73565;45.774;15.892;2023-11-21T00:33:49;116;113;76
83597;PMS5003;73565;45.774;15.892;2023-11-21T00:35:52;121;118;80
83597;PMS5003;73565;45.774;15.892;2023-11-21T00:37:49;116;102;60
83597;PMS5003;73565;45.774;15.892;2023-11-21T00:39:49;122;118;75
83597;PMS5003;73565;45.774;15.892;2023-11-21T00:41:49;111;105;76
83597;PMS5003;73565;45.774;15.892;2023-11-21T00:43:49;121;115;73
83597;PMS5003;73565;45.774;15.892;2023-11-21T00:45:49;116;111;67
83597;PMS5003;73565;45.774;15.892;2023-11-21T00:47:59;108;104;67
83597;PMS5003;73565;45.774;15.892;2023-11-21T00:49:49;118;110;72
83597;PMS5003;73565;45.774;15.892;2023-11-21T00:51:49;115;111;68
83597;PMS5003;73565;45.774;15.892;2023-11-21T00:53:49;116;111;69
83597;PMS5003;73565;45.774;15.892;2023-11-21T00:55:49;127;117;74
83597;PMS5003;73565;45.774;15.892;2023-11-21T01:00:03;103;98;66
83597;PMS5003;73565;45.774;15.892;2023-11-21T01:02:00;106;99;61
83597;PMS5003;73565;45.774;15.892;2023-11-21T01:04:00;108;103;67
83597;PMS5003;73565;45.774;15.892;2023-11-21T01:06:00;106;95;61
83597;PMS5003;73565;45.774;15.892;2023-11-21T01:08:03;103;91;61
83597;PMS5003;73565;45.774;15.892;2023-11-21T01:10:00;100;88;55
83597;PMS5003;73565;45.774;15.892;2023-11-21T01:12:00;98;85;54
83597;PMS5003;73565;45.774;15.892;2023-11-21T01:14:00;99;87;56
83597;PMS5003;73565;45.774;15.892;2023-11-21T01:16:00;96;79;53
83597;PMS5003;73565;45.774;15.892;2023-11-21T01:18:11;95;80;54
83597;PMS5003;73565;45.774;15.892;2023-11-21T01:20:01;95;83;53
83597;PMS5003;73565;45.774;15.892;2023-11-21T01:24:10;85;70;44
83597;PMS5003;73565;45.774;15.892;2023-11-21T01:26:11;81;66;45
83597;PMS5003;73565;45.774;15.892;2023-11-21T01:28:10;81;66;43
83597;PMS5003;73565;45.774;15.892;2023-11-21T01:30:11;83;66;44
83597;PMS5003;73565;45.774;15.892;2023-11-21T01:32:10;83;67;45
83597;PMS5003;73565;45.774;15.892;2023-11-21T01:34:10;84;68;44
83597;PMS5003;73565;45.774;15.892;2023-11-21T01:36:10;86;69;47
83597;PMS5003;73565;45.774;15.892;2023-11-21T01:38:10;81;67;46
83597;PMS5003;73565;45.774;15.892;2023-11-21T01:40:11;79;65;43
83597;PMS5003;73565;45.774;15.892;2023-11-21T01:42:10;80;66;45
83597;PMS5003;73565;45.774;15.892;2023-11-21T01:44:10;74;63;42
83597;PMS5003;73565;45.774;15.892;2023-11-21T01:46:10;84;69;45
83597;PMS5003;73565;45.774;15.892;2023-11-21T01:48:10;78;64;43
83597;PMS5003;73565;45.774;15.892;2023-11-21T01:50:12;82;68;46
83597;PMS5003;73565;45.774;15.892;2023-11-21T01:52:10;87;72;48
83597;PMS5003;73565;45.774;15.892;2023-11-21T01:54:10;82;68;42
83597;PMS5003;73565;45.774;15.892;2023-11-21T01:56:11;85;70;45
83597;PMS5003;73565;45.774;15.892;2023-11-21T01:58:13;86;72;47
83597;PMS5003;73565;45.774;15.892;2023-11-21T02:00:11;83;65;44
83597;PMS5003;73565;45.774;15.892;2023-11-21T02:02:10;83;69;47
83597;PMS5003;73565;45.774;15.892;2023-11-21T02:04:10;89;72;48
83597;PMS5003;73565;45.774;15.892;2023-11-21T02:06:13;87;71;46
83597;PMS5003;73565;45.774;15.892;2023-11-21T02:08:12;81;65;42
83597;PMS5003;73565;45.774;15.892;2023-11-21T02:10:10;82;67;42
83597;PMS5003;73565;45.774;15.892;2023-11-21T02:12:11;76;63;41
83597;PMS5003;73565;45.774;15.892;2023-11-21T02:14:10;30;27;23
83597;PMS5003;73565;45.774;15.892;2023-11-21T02:16:13;76;63;43
83597;PMS5003;73565;45.774;15.892;2023-11-21T02:18:10;85;66;45
83597;PMS5003;73565;45.774;15.892;2023-11-21T02:20:11;81;66;45
83597;PMS5003;73565;45.774;15.892;2023-11-21T02:22:12;82;67;46
83597;PMS5003;73565;45.774;15.892;2023-11-21T02:24:13;82;67;44
83597;PMS5003;73565;45.774;15.892;2023-11-21T02:26:10;84;67;44
83597;PMS5003;73565;45.774;15.892;2023-11-21T02:28:10;83;67;45
83597;PMS5003;73565;45.774;15.892;2023-11-21T02:30:11;79;65;44
83597;PMS5003;73565;45.774;15.892;2023-11-21T02:32:10;78;63;42
83597;PMS5003;73565;45.774;15.892;2023-11-21T02:34:10;70;56;39
83597;PMS5003;73565;45.774;15.892;2023-11-21T02:36:10;68;57;38
83597;PMS5003;73565;45.774;15.892;2023-11-21T02:38:10;59;50;35
83597;PMS5003;73565;45.774;15.892;2023-11-21T02:40:15;67;56;38
83597;PMS5003;73565;45.774;15.892;2023-11-21T02:42:10;67;56;37
83597;PMS5003;73565;45.774;15.892;2023-11-21T02:44:10;64;53;36
83597;PMS5003;73565;45.774;15.892;2023-11-21T02:46:10;62;53;33
83597;PMS5003;73565;45.774;15.892;2023-11-21T02:48:10;64;55;36
83597;PMS5003;73565;45.774;15.892;2023-11-21T02:50:11;50;44;30
83597;PMS5003;73565;45.774;15.892;2023-11-21T02:52:10;61;53;37
83597;PMS5003;73565;45.774;15.892;2023-11-21T02:54:10;58;50;34
83597;PMS5003;73565;45.774;15.892;2023-11-21T02:57:48;53;47;32
83597;PMS5003;73565;45.774;15.892;2023-11-21T02:59:48;54;47;33
83597;PMS5003;73565;45.774;15.892;2023-11-21T03:01:48;58;49;32
83597;PMS5003;73565;45.774;15.892;2023-11-21T03:03:48;60;51;34
83597;PMS5003;73565;45.774;15.892;2023-11-21T03:05:48;59;52;36
83597;PMS5003;73565;45.774;15.892;2023-11-21T03:07:48;63;52;35
83597;PMS5003;73565;45.774;15.892;2023-11-21T03:09:48;56;49;34
83597;PMS5003;73565;45.774;15.892;2023-11-21T03:11:48;62;52;35
83597;PMS5003;73565;45.774;15.892;2023-11-21T03:13:48;55;48;36
83597;PMS5003;73565;45.774;15.892;2023-11-21T03:15:48;59;49;34
83597;PMS5003;73565;45.774;15.892;2023-11-21T03:17:48;60;50;34
83597;PMS5003;73565;45.774;15.892;2023-11-21T03:19:48;55;48;31
83597;PMS5003;73565;45.774;15.892;2023-11-21T03:21:48;62;53;35
83597;PMS5003;73565;45.774;15.892;2023-11-21T03:23:48;47;44;32
83597;PMS5003;73565;45.774;15.892;2023-11-21T03:25:48;63;54;35
83597;PMS5003;73565;45.774;15.892;2023-11-21T03:27:48;67;55;37
83597;PMS5003;73565;45.774;15.892;2023-11-21T03:29:48;66;54;36
83597;PMS5003;73565;45.774;15.892;2023-11-21T03:31:48;65;54;36
83597;PMS5003;73565;45.774;15.892;2023-11-21T03:33:48;62;54;38
83597;PMS5003;73565;45.774;15.892;2023-11-21T03:36:27;57;49;35
83597;PMS5003;73565;45.774;15.892;2023-11-21T03:37:04;73;60;39
83597;PMS5003;73565;45.774;15.892;2023-11-21T03:38:39;69;57;37
83597;PMS5003;73565;45.774;15.892;2023-11-21T03:40:39;63;53;36
83597;PMS5003;73565;45.774;15.892;2023-11-21T03:42:39;70;57;36
83597;PMS5003;73565;45.774;15.892;2023-11-21T03:44:39;66;56;37
83597;PMS5003;73565;45.774;15.892;2023-11-21T03:46:36;64;56;38
83597;PMS5003;73565;45.774;15.892;2023-11-21T03:48:36;62;52;35
83597;PMS5003;73565;45.774;15.892;2023-11-21T03:50:36;62;54;38
83597;PMS5003;73565;45.774;15.892;2023-11-21T03:51:36;68;56;38
83597;PMS5003;73565;45.774;15.892;2023-11-21T03:57:24;67;56;38
83597;PMS5003;73565;45.774;15.892;2023-11-21T03:59:33;63;52;36
83597;PMS5003;73565;45.774;15.892;2023-11-21T04:01:25;60;50;36
83597;PMS5003;73565;45.774;15.892;2023-11-21T04:03:22;63;51;33
83597;PMS5003;73565;45.774;15.892;2023-11-21T04:05:22;60;52;36
83597;PMS5003;73565;45.774;15.892;2023-11-21T04:07:22;61;52;34
83597;PMS5003;73565;45.774;15.892;2023-11-21T04:08:36;65;54;36
83597;PMS5003;73565;45.774;15.892;2023-11-21T04:10:22;61;52;34
83597;PMS5003;73565;45.774;15.892;2023-11-21T04:12:50;65;56;36
83597;PMS5003;73565;45.774;15.892;2023-11-21T04:14:24;54;46;29
83597;PMS5003;73565;45.774;15.892;2023-11-21T04:16:21;65;55;36
83597;PMS5003;73565;45.774;15.892;2023-11-21T04:18:21;69;55;37
83597;PMS5003;73565;45.774;15.892;2023-11-21T04:20:21;64;53;34
83597;PMS5003;73565;45.774;15.892;2023-11-21T04:22:54;62;53;35
83597;PMS5003;73565;45.774;15.892;2023-11-21T04:24:54;61;51;35
83597;PMS5003;73565;45.774;15.892;2023-11-21T04:26:57;37;35;21
83597;PMS5003;73565;45.774;15.892;2023-11-21T04:28:57;67;56;37
83597;PMS5003;73565;45.774;15.892;2023-11-21T04:30:54;68;57;37
83597;PMS5003;73565;45.774;15.892;2023-11-21T04:32:54;68;57;37
83597;PMS5003;73565;45.774;15.892;2023-11-21T04:34:57;66;56;35
83597;PMS5003;73565;45.774;15.892;2023-11-21T04:36:56;66;53;36
83597;PMS5003;73565;45.774;15.892;2023-11-21T04:38:54;61;52;35
83597;PMS5003;73565;45.774;15.892;2023-11-21T04:40:55;69;59;37
83597;PMS5003;73565;45.774;15.892;2023-11-21T04:42:54;61;51;32
83597;PMS5003;73565;45.774;15.892;2023-11-21T04:44:57;68;56;37
83597;PMS5003;73565;45.774;15.892;2023-11-21T04:46:54;67;56;37
83597;PMS5003;73565;45.774;15.892;2023-11-21T04:48:54;67;56;38
83597;PMS5003;73565;45.774;15.892;2023-11-21T04:50:54;65;54;36
83597;PMS5003;73565;45.774;15.892;2023-11-21T04:52:54;63;52;36
83597;PMS5003;73565;45.774;15.892;2023-11-21T04:54:54;61;53;36
83597;PMS5003;73565;45.774;15.892;2023-11-21T04:56:54;70;59;38
83597;PMS5003;73565;45.774;15.892;2023-11-21T04:58:54;60;50;32
83597;PMS5003;73565;45.774;15.892;2023-11-21T05:00:54;63;52;36
83597;PMS5003;73565;45.774;15.892;2023-11-21T05:02:54;66;55;36
83597;PMS5003;73565;45.774;15.892;2023-11-21T05:04:54;67;56;37
83597;PMS5003;73565;45.774;15.892;2023-11-21T05:05:48;64;53;38
83597;PMS5003;73565;45.774;15.892;2023-11-21T05:06:53;63;52;34
83597;PMS5003;73565;45.774;15.892;2023-11-21T05:08:53;61;53;35
83597;PMS5003;73565;45.774;15.892;2023-11-21T05:10:53;63;52;36
83597;PMS5003;73565;45.774;15.892;2023-11-21T05:12:53;67;56;36
83597;PMS5003;73565;45.774;15.892;2023-11-21T05:14:53;61;53;36
83597;PMS5003;73565;45.774;15.892;2023-11-21T05:16:53;61;52;34
83597;PMS5003;73565;45.774;15.892;2023-11-21T05:18:53;66;55;37
83597;PMS5003;73565;45.774;15.892;2023-11-21T05:20:53;64;53;35
83597;PMS5003;73565;45.774;15.892;2023-11-21T05:22:53;65;54;35
83597;PMS5003;73565;45.774;15.892;2023-11-21T05:24:53;63;52;36
83597;PMS5003;73565;45.774;15.892;2023-11-21T05:26:53;62;52;34
83597;PMS5003;73565;45.774;15.892;2023-11-21T05:28:55;59;49;34
83597;PMS5003;73565;45.774;15.892;2023-11-21T05:29:52;58;49;34
83597;PMS5003;73565;45.774;15.892;2023-11-21T05:31:13;59;50;34
83597;PMS5003;73565;45.774;15.892;2023-11-21T05:33:13;62;52;35
83597;PMS5003;73565;45.774;15.892;2023-11-21T05:35:13;66;55;36
83597;PMS5003;73565;45.774;15.892;2023-11-21T05:37:13;57;50;35
83597;PMS5003;73565;45.774;15.892;2023-11-21T05:39:13;59;49;34
83597;PMS5003;73565;45.774;15.892;2023-11-21T05:41:13;62;52;36
83597;PMS5003;73565;45.774;15.892;2023-11-21T05:43:13;63;53;33
83597;PMS5003;73565;45.774;15.892;2023-11-21T05:45:13;63;53;36
83597;PMS5003;73565;45.774;15.892;2023-11-21T05:47:45;69;56;37
83597;PMS5003;73565;45.774;15.892;2023-11-21T05:49:46;63;55;36
83597;PMS5003;73565;45.774;15.892;2023-11-21T05:51:44;62;52;35
83597;PMS5003;73565;45.774;15.892;2023-11-21T05:53:44;71;60;37
83597;PMS5003;73565;45.774;15.892;2023-11-21T05:55:44;66;56;38
83597;PMS5003;73565;45.774;15.892;2023-11-21T05:57:45;75;61;39
83597;PMS5003;73565;45.774;15.892;2023-11-21T05:59:44;69;58;36
83597;PMS5003;73565;45.774;15.892;2023-11-21T06:01:44;70;57;37
83597;PMS5003;73565;45.774;15.892;2023-11-21T06:02:18;71;57;36
83597;PMS5003;73565;45.774;15.892;2023-11-21T06:03:51;63;53;36
83597;PMS5003;73565;45.774;15.892;2023-11-21T06:05:51;61;52;38
83597;PMS5003;73565;45.774;15.892;2023-11-21T06:07:51;61;53;32
83597;PMS5003;73565;45.774;15.892;2023-11-21T06:09:51;67;56;36
83597;PMS5003;73565;45.774;15.892;2023-11-21T06:11:51;65;54;38
83597;PMS5003;73565;45.774;15.892;2023-11-21T06:13:51;67;56;38
83597;PMS5003;73565;45.774;15.892;2023-11-21T06:15:51;71;59;37
83597;PMS5003;73565;45.774;15.892;2023-11-21T06:17:51;69;58;38
83597;PMS5003;73565;45.774;15.892;2023-11-21T06:27:49;63;53;37
83597;PMS5003;73565;45.774;15.892;2023-11-21T06:31:59;60;50;36
83597;PMS5003;73565;45.774;15.892;2023-11-21T07:12:25;64;54;35
83597;PMS5003;73565;45.774;15.892;2023-11-21T07:14:27;63;55;35
83597;PMS5003;73565;45.774;15.892;2023-11-21T07:16:22;63;54;36
83597;PMS5003;73565;45.774;15.892;2023-11-21T07:18:22;59;51;35
83597;PMS5003;73565;45.774;15.892;2023-11-21T07:24:35;54;46;30
83597;PMS5003;73565;45.774;15.892;2023-11-21T07:26:36;39;39;27
83597;PMS5003;73565;45.774;15.892;2023-11-21T07:28:34;30;30;21
83597;PMS5003;73565;45.774;15.892;2023-11-21T07:30:34;27;25;19
83597;PMS5003;73565;45.774;15.892;2023-11-21T07:32:34;18;18;12
83597;PMS5003;73565;45.774;15.892;2023-11-21T07:34:35;24;23;17
83597;PMS5003;73565;45.774;15.892;2023-11-21T07:36:34;19;19;16
83597;PMS5003;73565;45.774;15.892;2023-11-21T07:38:34;16;16;12
83597;PMS5003;73565;45.774;15.892;2023-11-21T07:40:34;13;12;9
83597;PMS5003;73565;45.774;15.892;2023-11-21T07:42:34;5;5;4
83597;PMS5003;73565;45.774;15.892;2023-11-21T07:44:34;9;8;6
83597;PMS5003;73565;45.774;15.892;2023-11-21T07:46:34;10;10;9
83597;PMS5003;73565;45.774;15.892;2023-11-21T07:48:37;8;6;5
83597;PMS5003;73565;45.774;15.892;2023-11-21T07:50:37;6;6;6
83597;PMS5003;73565;45.774;15.892;2023-11-21T07:52:34;9;8;6
83597;PMS5003;73565;45.774;15.892;2023-11-21T07:54:37;6;6;5
83597;PMS5003;73565;45.774;15.892;2023-11-21T07:56:38;6;6;5
83597;PMS5003;73565;45.774;15.892;2023-11-21T07:58:34;9;9;8
83597;PMS5003;73565;45.774;15.892;2023-11-21T08:00:34;8;6;6
83597;PMS5003;73565;45.774;15.892;2023-11-21T08:02:34;5;5;5
83597;PMS5003;73565;45.774;15.892;2023-11-21T08:04:34;6;5;5
83597;PMS5003;73565;45.774;15.892;2023-11-21T08:06:35;5;5;3
83597;PMS5003;73565;45.774;15.892;2023-11-21T08:08:34;6;6;5
83597;PMS5003;73565;45.774;15.892;2023-11-21T08:10:34;8;8;5
83597;PMS5003;73565;45.774;15.892;2023-11-21T08:12:34;5;5;4
83597;PMS5003;73565;45.774;15.892;2023-11-21T08:28:48;4;4;4
83597;PMS5003;73565;45.774;15.892;2023-11-21T08:30:42;3;3;2
83597;PMS5003;73565;45.774;15.892;2023-11-21T08:32:42;6;5;4
83597;PMS5003;73565;45.774;15.892;2023-11-21T08:36:35;5;2;2
83597;PMS5003;73565;45.774;15.892;2023-11-21T08:38:32;5;5;3
83597;PMS5003;73565;45.774;15.892;2023-11-21T08:40:32;6;6;5
83597;PMS5003;73565;45.774;15.892;2023-11-21T08:42:32;5;5;4
83597;PMS5003;73565;45.774;15.892;2023-11-21T08:44:32;4;4;4
83597;PMS5003;73565;45.774;15.892;2023-11-21T08:46:41;5;5;4
83597;PMS5003;73565;45.774;15.892;2023-11-21T08:48:32;5;5;5
83597;PMS5003;73565;45.774;15.892;2023-11-21T08:50:34;4;4;2
83597;PMS5003;73565;45.774;15.892;2023-11-21T08:52:34;4;4;2
83597;PMS5003;73565;45.774;15.892;2023-11-21T08:54:36;2;2;2
83597;PMS5003;73565;45.774;15.892;2023-11-21T08:56:32;2;2;2
83597;PMS5003;73565;45.774;15.892;2023-11-21T08:58:32;5;5;4
83597;PMS5003;73565;45.774;15.892;2023-11-21T09:00:32;4;4;4
83597;PMS5003;73565;45.774;15.892;2023-11-21T09:02:32;4;4;2
83597;PMS5003;73565;45.774;15.892;2023-11-21T09:04:32;4;4;4
83597;PMS5003;73565;45.774;15.892;2023-11-21T09:06:32;4;4;4
83597;PMS5003;73565;45.774;15.892;2023-11-21T09:08:35;4;4;4
83597;PMS5003;73565;45.774;15.892;2023-11-21T09:10:32;5;5;4
83597;PMS5003;73565;45.774;15.892;2023-11-21T09:12:35;5;4;4
83597;PMS5003;73565;45.774;15.892;2023-11-21T09:14:36;3;3;3
83597;PMS5003;73565;45.774;15.892;2023-11-21T09:16:36;4;4;4
83597;PMS5003;73565;45.774;15.892;2023-11-21T09:18:34;2;2;2
83597;PMS5003;73565;45.774;15.892;2023-11-21T09:20:40;4;4;4
83597;PMS5003;73565;45.774;15.892;2023-11-21T09:42:17;4;4;4
83597;PMS5003;73565;45.774;15.892;2023-11-21T09:44:17;2;2;2
83597;PMS5003;73565;45.774;15.892;2023-11-21T09:46:16;2;2;2
83597;PMS5003;73565;45.774;15.892;2023-11-21T09:48:16;4;4;2
83597;PMS5003;73565;45.774;15.892;2023-11-21T09:50:16;2;2;2
83597;PMS5003;73565;45.774;15.892;2023-11-21T09:52:17;4;4;2
83597;PMS5003;73565;45.774;15.892;2023-11-21T09:54:16;4;4;4
83597;PMS5003;73565;45.774;15.892;2023-11-21T09:56:16;3;3;3
83597;PMS5003;73565;45.774;15.892;2023-11-21T09:57:08;5;5;3
83597;PMS5003;73565;45.774;15.892;2023-11-21T09:59:01;4;4;4
83597;PMS5003;73565;45.774;15.892;2023-11-21T10:00:59;5;5;5
83597;PMS5003;73565;45.774;15.892;2023-11-21T10:02:59;5;4;2
83597;PMS5003;73565;45.774;15.892;2023-11-21T10:04:59;4;2;2
83597;PMS5003;73565;45.774;15.892;2023-11-21T10:07:01;5;3;3
83597;PMS5003;73565;45.774;15.892;2023-11-21T10:08:59;5;5;4
83597;PMS5003;73565;45.774;15.892;2023-11-21T10:10:59;4;4;4
83597;PMS5003;73565;45.774;15.892;2023-11-21T10:13:00;3;3;2
83597;PMS5003;73565;45.774;15.892;2023-11-21T10:15:05;2;2;2
83597;PMS5003;73565;45.774;15.892;2023-11-21T10:17:01;2;2;2
83597;PMS5003;73565;45.774;15.892;2023-11-21T10:18:59;6;5;3
83597;PMS5003;73565;45.774;15.892;2023-11-21T10:19:30;6;6;5
83597;PMS5003;73565;45.774;15.892;2023-11-21T10:21:13;3;2;2
83597;PMS5003;73565;45.774;15.892;2023-11-21T10:23:13;5;5;3
83597;PMS5003;73565;45.774;15.892;2023-11-21T10:25:13;5;5;3
83597;PMS5003;73565;45.774;15.892;2023-11-21T10:27:13;3;3;3
83597;PMS5003;73565;45.774;15.892;2023-11-21T10:29:13;4;4;2
83597;PMS5003;73565;45.774;15.892;2023-11-21T10:31:15;5;4;2
83597;PMS5003;73565;45.774;15.892;2023-11-21T10:33:13;2;2;1
83597;PMS5003;73565;45.774;15.892;2023-11-21T10:35:13;3;3;2
83597;PMS5003;73565;45.774;15.892;2023-11-21T10:37:16;2;2;2
83597;PMS5003;73565;45.774;15.892;2023-11-21T10:39:13;5;3;3
83597;PMS5003;73565;45.774;15.892;2023-11-21T10:41:14;4;4;2
83597;PMS5003;73565;45.774;15.892;2023-11-21T10:43:13;1;1;1
83597;PMS5003;73565;45.774;15.892;2023-11-21T10:45:13;2;2;2
83597;PMS5003;73565;45.774;15.892;2023-11-21T10:47:13;4;4;2
83597;PMS5003;73565;45.774;15.892;2023-11-21T10:49:13;3;3;2
83597;PMS5003;73565;45.774;15.892;2023-11-21T10:51:13;2;2;2
83597;PMS5003;73565;45.774;15.892;2023-11-21T10:53:13;2;2;2
83597;PMS5003;73565;45.774;15.892;2023-11-21T10:55:19;2;2;2
83597;PMS5003;73565;45.774;15.892;2023-11-21T10:57:13;5;4;4
83597;PMS5003;73565;45.774;15.892;2023-11-21T10:59:13;5;3;3
83597;PMS5003;73565;45.774;15.892;2023-11-21T11:01:13;5;4;2
83597;PMS5003;73565;45.774;15.892;2023-11-21T11:03:13;4;4;4
83597;PMS5003;73565;45.774;15.892;2023-11-21T11:05:13;3;3;2
83597;PMS5003;73565;45.774;15.892;2023-11-21T11:07:13;5;5;4
83597;PMS5003;73565;45.774;15.892;2023-11-21T11:09:13;4;4;4
83597;PMS5003;73565;45.774;15.892;2023-11-21T11:11:13;5;5;4
83597;PMS5003;73565;45.774;15.892;2023-11-21T11:12:04;5;5;3
83597;PMS5003;73565;45.774;15.892;2023-11-21T11:13:21;5;5;5
83597;PMS5003;73565;45.774;15.892;2023-11-21T11:15:16;6;6;5
83597;PMS5003;73565;45.774;15.892;2023-11-21T11:17:16;5;5;3
83597;PMS5003;73565;45.774;15.892;2023-11-21T11:19:20;3;3;3
83597;PMS5003;73565;45.774;15.892;2023-11-21T11:21:23;5;3;2
83597;PMS5003;73565;45.774;15.892;2023-11-21T11:23:27;6;5;3
83597;PMS5003;73565;45.774;15.892;2023-11-21T11:25:25;7;5;3
83597;PMS5003;73565;45.774;15.892;2023-11-21T11:27:21;3;3;2
83597;PMS5003;73565;45.774;15.892;2023-11-21T11:29:23;5;5;5
83597;PMS5003;73565;45.774;15.892;2023-11-21T11:31:24;6;5;5
83597;PMS5003;73565;45.774;15.892;2023-11-21T11:33:24;5;5;3
83597;PMS5003;73565;45.774;15.892;2023-11-21T11:35:22;2;2;2
83597;PMS5003;73565;45.774;15.892;2023-11-21T11:37:19;2;2;2
83597;PMS5003;73565;45.774;15.892;2023-11-21T11:39:34;4;2;2
83597;PMS5003;73565;45.774;15.892;2023-11-21T11:41:28;3;3;3
83597;PMS5003;73565;45.774;15.892;2023-11-21T11:43:27;5;5;3
83597;PMS5003;73565;45.774;15.892;2023-11-21T11:45:21;3;3;3
83597;PMS5003;73565;45.774;15.892;2023-11-21T11:47:20;5;3;3
83597;PMS5003;73565;45.774;15.892;2023-11-21T11:49:27;6;5;5
83597;PMS5003;73565;45.774;15.892;2023-11-21T11:51:19;6;6;5
83597;PMS5003;73565;45.774;15.892;2023-11-21T11:53:19;6;6;5
83597;PMS5003;73565;45.774;15.892;2023-11-21T11:55:20;9;8;6
83597;PMS5003;73565;45.774;15.892;2023-11-21T11:57:20;5;5;4
83597;PMS5003;73565;45.774;15.892;2023-11-21T11:59:19;5;5;4
83597;PMS5003;73565;45.774;15.892;2023-11-21T12:01:21;5;5;3
83597;PMS5003;73565;45.774;15.892;2023-11-21T12:03:19;5;5;5
83597;PMS5003;73565;45.774;15.892;2023-11-21T12:06:08;7;7;4
83597;PMS5003;73565;45.774;15.892;2023-11-21T12:07:57;3;3;3
83597;PMS5003;73565;45.774;15.892;2023-11-21T12:09:56;5;5;3
83597;PMS5003;73565;45.774;15.892;2023-11-21T12:11:56;8;6;4
83597;PMS5003;73565;45.774;15.892;2023-11-21T12:13:56;5;5;3
83597;PMS5003;73565;45.774;15.892;2023-11-21T12:15:59;5;5;4
83597;PMS5003;73565;45.774;15.892;2023-11-21T12:17:56;4;4;4
83597;PMS5003;73565;45.774;15.892;2023-11-21T12:20:00;6;6;5
83597;PMS5003;73565;45.774;15.892;2023-11-21T12:21:56;2;2;2
83597;PMS5003;73565;45.774;15.892;2023-11-21T12:23:57;4;4;4
83597;PMS5003;73565;45.774;15.892;2023-11-21T12:25:56;2;2;2
83597;PMS5003;73565;45.774;15.892;2023-11-21T12:27:56;3;3;3
83597;PMS5003;73565;45.774;15.892;2023-11-21T12:29:56;5;5;2
83597;PMS5003;73565;45.774;15.892;2023-11-21T12:31:56;5;5;3
83597;PMS5003;73565;45.774;15.892;2023-11-21T12:33:56;3;3;3
83597;PMS5003;73565;45.774;15.892;2023-11-21T12:35:56;2;2;2
83597;PMS5003;73565;45.774;15.892;2023-11-21T12:37:56;6;4;4
83597;PMS5003;73565;45.774;15.892;2023-11-21T12:39:56;4;4;2
83597;PMS5003;73565;45.774;15.892;2023-11-21T12:41:56;2;2;1
83597;PMS5003;73565;45.774;15.892;2023-11-21T12:43:56;2;2;1
83597;PMS5003;73565;45.774;15.892;2023-11-21T12:47:56;1;1;1
83597;PMS5003;73565;45.774;15.892;2023-11-21T12:49:56;2;2;1
83597;PMS5003;73565;45.774;15.892;2023-11-21T12:51:56;4;2;2
83597;PMS5003;73565;45.774;15.892;2023-11-21T12:53:56;3;3;2
83597;PMS5003;73565;45.774;15.892;2023-11-21T12:55:56;6;6;5
83597;PMS5003;73565;45.774;15.892;2023-11-21T12:57:56;5;5;3
83597;PMS5003;73565;45.774;15.892;2023-11-21T12:59:56;5;5;3
83597;PMS5003;73565;45.774;15.892;2023-11-21T13:01:57;4;4;4
83597;PMS5003;73565;45.774;15.892;2023-11-21T13:03:56;5;5;3
83597;PMS5003;73565;45.774;15.892;2023-11-21T13:05:56;6;5;3
83597;PMS5003;73565;45.774;15.892;2023-11-21T13:07:56;5;5;3
83597;PMS5003;73565;45.774;15.892;2023-11-21T13:09:56;3;3;3
83597;PMS5003;73565;45.774;15.892;2023-11-21T13:12:02;5;5;3
83597;PMS5003;73565;45.774;15.892;2023-11-21T13:13:56;6;6;5
83597;PMS5003;73565;45.774;15.892;2023-11-21T13:15:56;5;3;2
83597;PMS5003;73565;45.774;15.892;2023-11-21T13:17:56;6;5;3
83597;PMS5003;73565;45.774;15.892;2023-11-21T13:19:56;5;5;3
83597;PMS5003;73565;45.774;15.892;2023-11-21T13:21:56;6;6;5
83597;PMS5003;73565;45.774;15.892;2023-11-21T13:23:56;5;5;4
83597;PMS5003;73565;45.774;15.892;2023-11-21T13:25:56;6;6;3
83597;PMS5003;73565;45.774;15.892;2023-11-21T13:27:56;6;6;5
83597;PMS5003;73565;45.774;15.892;2023-11-21T13:29:56;6;6;5
83597;PMS5003;73565;45.774;15.892;2023-11-21T13:31:56;6;5;5
83597;PMS5003;73565;45.774;15.892;2023-11-21T13:33:59;6;6;5
83597;PMS5003;73565;45.774;15.892;2023-11-21T13:35:56;6;6;5
83597;PMS5003;73565;45.774;15.892;2023-11-21T13:37:56;7;7;5
83597;PMS5003;73565;45.774;15.892;2023-11-21T13:39:56;7;7;6
83597;PMS5003;73565;45.774;15.892;2023-11-21T13:41:56;5;5;5
83597;PMS5003;73565;45.774;15.892;2023-11-21T13:43:56;7;7;6
83597;PMS5003;73565;45.774;15.892;2023-11-21T13:45:56;7;7;5
83597;PMS5003;73565;45.774;15.892;2023-11-21T13:47:56;3;3;3
83597;PMS5003;73565;45.774;15.892;2023-11-21T13:49:56;6;5;5
83597;PMS5003;73565;45.774;15.892;2023-11-21T13:51:56;6;6;5
83597;PMS5003;73565;45.774;15.892;2023-11-21T13:53:56;7;7;5
83597;PMS5003;73565;45.774;15.892;2023-11-21T13:55:56;5;5;5
83597;PMS5003;73565;45.774;15.892;2023-11-21T13:57:56;7;7;7
83597;PMS5003;73565;45.774;15.892;2023-11-21T13:59:56;7;6;6
83597;PMS5003;73565;45.774;15.892;2023-11-21T14:01:56;6;5;3
83597;PMS5003;73565;45.774;15.892;2023-11-21T14:03:56;5;5;5
83597;PMS5003;73565;45.774;15.892;2023-11-21T14:05:56;6;6;6
83597;PMS5003;73565;45.774;15.892;2023-11-21T14:07:56;5;5;5
83597;PMS5003;73565;45.774;15.892;2023-11-21T14:11:00;5;5;5
83597;PMS5003;73565;45.774;15.892;2023-11-21T14:13:00;5;5;5
83597;PMS5003;73565;45.774;15.892;2023-11-21T14:15:00;3;3;3
83597;PMS5003;73565;45.774;15.892;2023-11-21T14:15:44;6;6;6
83597;PMS5003;73565;45.774;15.892;2023-11-21T14:16:55;5;5;5
83597;PMS5003;73565;45.774;15.892;2023-11-21T14:18:55;6;6;3
83597;PMS5003;73565;45.774;15.892;2023-11-21T14:20:55;5;5;5
83597;PMS5003;73565;45.774;15.892;2023-11-21T14:22:55;7;7;6